sensor_id;sensor_type;location;lat;lon;timestamp;temperature;humidity
46416;DHT22;32620;51.704;7.822;2023-05-07T00:01:42;13.60;99.90
46416;DHT22;32620;51.704;7.822;2023-05-07T00:04:08;13.60;99.90
46416;DHT22;32620;51.704;7.822;2023-05-07T00:06:34;13.60;99.90
46416;DHT22;32620;51.704;7.822;2023-05-07T00:08:59;13.60;99.90
46416;DHT22;32620;51.704;7.822;2023-05-07T00:11:26;13.50;99.90
46416;DHT22;32620;51.704;7.822;2023-05-07T00:13:52;13.60;99.90
46416;DHT22;32620;51.704;7.822;2023-05-07T00:16:17;13.60;99.90
46416;DHT22;32620;51.704;7.822;2023-05-07T00:18:43;13.50;99.90
46416;DHT22;32620;51.704;7.822;2023-05-07T00:21:09;13.50;99.90
46416;DHT22;32620;51.704;7.822;2023-05-07T00:23:34;13.50;99.90
46416;DHT22;32620;51.704;7.822;2023-05-07T00:26:00;13.50;99.90
46416;DHT22;32620;51.704;7.822;2023-05-07T00:28:25;13.50;99.90
46416;DHT22;32620;51.704;7.822;2023-05-07T00:30:51;13.50;99.90
46416;DHT22;32620;51.704;7.822;2023-05-07T00:33:16;13.50;99.90
46416;DHT22;32620;51.704;7.822;2023-05-07T00:35:42;13.50;99.90
46416;DHT22;32620;51.704;7.822;2023-05-07T00:38:08;13.50;99.90
46416;DHT22;32620;51.704;7.822;2023-05-07T00:40:33;13.50;99.90
46416;DHT22;32620;51.704;7.822;2023-05-07T00:42:59;13.50;99.90
46416;DHT22;32620;51.704;7.822;2023-05-07T00:45:27;13.40;99.90
46416;DHT22;32620;51.704;7.822;2023-05-07T00:47:56;13.40;99.90
46416;DHT22;32620;51.704;7.822;2023-05-07T00:50:22;13.40;99.90
46416;DHT22;32620;51.704;7.822;2023-05-07T00:52:48;13.40;99.90
46416;DHT22;32620;51.704;7.822;2023-05-07T00:55:14;13.40;99.90
46416;DHT22;32620;51.704;7.822;2023-05-07T00:57:41;13.40;99.90
46416;DHT22;32620;51.704;7.822;2023-05-07T01:00:08;13.40;99.90
46416;DHT22;32620;51.704;7.822;2023-05-07T01:02:37;13.40;99.90
46416;DHT22;32620;51.704;7.822;2023-05-07T01:05:04;13.40;99.90
46416;DHT22;32620;51.704;7.822;2023-05-07T01:07:32;13.40;99.90
46416;DHT22;32620;51.704;7.822;2023-05-07T01:09:58;13.40;99.90
46416;DHT22;32620;51.704;7.822;2023-05-07T01:12:25;13.30;99.90
46416;DHT22;32620;51.704;7.822;2023-05-07T01:14:50;13.30;99.90
46416;DHT22;32620;51.704;7.822;2023-05-07T01:17:17;13.30;99.90
46416;DHT22;32620;51.704;7.822;2023-05-07T01:19:42;13.30;99.90
46416;DHT22;32620;51.704;7.822;2023-05-07T01:22:10;13.30;99.90
46416;DHT22;32620;51.704;7.822;2023-05-07T01:24:37;13.30;99.90
46416;DHT22;32620;51.704;7.822;2023-05-07T01:27:03;13.30;99.90
46416;DHT22;32620;51.704;7.822;2023-05-07T01:29:29;13.30;99.90
46416;DHT22;32620;51.704;7.822;2023-05-07T01:31:58;13.30;99.90
46416;DHT22;32620;51.704;7.822;2023-05-07T01:34:26;13.30;99.90
46416;DHT22;32620;51.704;7.822;2023-05-07T01:36:54;13.30;99.90
46416;DHT22;32620;51.704;7.822;2023-05-07T01:39:22;13.30;99.90
46416;DHT22;32620;51.704;7.822;2023-05-07T01:41:48;13.30;99.90
46416;DHT22;32620;51.704;7.822;2023-05-07T01:44:14;13.30;99.90
46416;DHT22;32620;51.704;7.822;2023-05-07T01:46:40;13.30;99.90
46416;DHT22;32620;51.704;7.822;2023-05-07T01:49:06;13.30;99.90
46416;DHT22;32620;51.704;7.822;2023-05-07T01:51:31;13.30;99.90
46416;DHT22;32620;51.704;7.822;2023-05-07T01:53:57;13.30;99.90
46416;DHT22;32620;51.704;7.822;2023-05-07T01:56:24;13.30;99.90
46416;DHT22;32620;51.704;7.822;2023-05-07T01:58:50;13.30;99.90
46416;DHT22;32620;51.704;7.822;2023-05-07T02:01:17;13.30;99.90
46416;DHT22;32620;51.704;7.822;2023-05-07T02:03:42;13.20;99.90
46416;DHT22;32620;51.704;7.822;2023-05-07T02:06:08;13.30;99.90
46416;DHT22;32620;51.704;7.822;2023-05-07T02:08:34;13.20;99.90
46416;DHT22;32620;51.704;7.822;2023-05-07T02:10:59;13.30;99.90
46416;DHT22;32620;51.704;7.822;2023-05-07T02:13:28;13.30;99.90
46416;DHT22;32620;51.704;7.822;2023-05-07T02:15:54;13.30;99.90
46416;DHT22;32620;51.704;7.822;2023-05-07T02:18:19;13.30;99.90
46416;DHT22;32620;51.704;7.822;2023-05-07T02:20:45;13.30;99.90
46416;DHT22;32620;51.704;7.822;2023-05-07T02:23:10;13.20;99.90
46416;DHT22;32620;51.704;7.822;2023-05-07T02:25:36;13.20;99.90
46416;DHT22;32620;51.704;7.822;2023-05-07T02:28:01;13.20;99.90
46416;DHT22;32620;51.704;7.822;2023-05-07T02:30:28;13.20;99.90
46416;DHT22;32620;51.704;7.822;2023-05-07T02:32:54;13.20;99.90
46416;DHT22;32620;51.704;7.822;2023-05-07T02:35:20;13.20;99.90
46416;DHT22;32620;51.704;7.822;2023-05-07T02:37:45;13.20;99.90
46416;DHT22;32620;51.704;7.822;2023-05-07T02:40:11;13.20;99.90
46416;DHT22;32620;51.704;7.822;2023-05-07T02:42:37;13.20;99.90
46416;DHT22;32620;51.704;7.822;2023-05-07T02:45:03;13.20;99.90
46416;DHT22;32620;51.704;7.822;2023-05-07T02:47:29;13.20;99.90
46416;DHT22;32620;51.704;7.822;2023-05-07T02:49:55;13.20;99.90
46416;DHT22;32620;51.704;7.822;2023-05-07T02:52:21;13.10;99.90
46416;DHT22;32620;51.704;7.822;2023-05-07T02:54:47;13.10;99.90
46416;DHT22;32620;51.704;7.822;2023-05-07T02:57:12;13.20;99.90
46416;DHT22;32620;51.704;7.822;2023-05-07T02:59:38;13.10;99.90
46416;DHT22;32620;51.704;7.822;2023-05-07T03:02:03;13.10;99.90
46416;DHT22;32620;51.704;7.822;2023-05-07T03:04:29;13.10;99.90
46416;DHT22;32620;51.704;7.822;2023-05-07T03:06:54;13.10;99.90
46416;DHT22;32620;51.704;7.822;2023-05-07T03:09:20;13.10;99.90
46416;DHT22;32620;51.704;7.822;2023-05-07T03:11:46;13.10;99.90
46416;DHT22;32620;51.704;7.822;2023-05-07T03:14:11;13.10;99.90
46416;DHT22;32620;51.704;7.822;2023-05-07T03:16:38;13.10;99.90
46416;DHT22;32620;51.704;7.822;2023-05-07T03:19:03;13.10;99.90
46416;DHT22;32620;51.704;7.822;2023-05-07T03:21:29;13.10;99.90
46416;DHT22;32620;51.704;7.822;2023-05-07T03:23:55;13.00;99.90
46416;DHT22;32620;51.704;7.822;2023-05-07T03:26:21;13.00;99.90
46416;DHT22;32620;51.704;7.822;2023-05-07T03:28:47;13.00;99.90
46416;DHT22;32620;51.704;7.822;2023-05-07T03:31:13;12.90;99.90
46416;DHT22;32620;51.704;7.822;2023-05-07T03:33:50;12.90;99.90
46416;DHT22;32620;51.704;7.822;2023-05-07T03:36:16;12.90;99.90
46416;DHT22;32620;51.704;7.822;2023-05-07T03:38:41;12.90;99.90
46416;DHT22;32620;51.704;7.822;2023-05-07T03:41:07;12.90;99.90
46416;DHT22;32620;51.704;7.822;2023-05-07T03:43:33;12.90;99.90
46416;DHT22;32620;51.704;7.822;2023-05-07T03:45:58;12.90;99.90
46416;DHT22;32620;51.704;7.822;2023-05-07T03:48:24;12.80;99.90
46416;DHT22;32620;51.704;7.822;2023-05-07T03:50:50;12.90;99.90
46416;DHT22;32620;51.704;7.822;2023-05-07T03:53:15;12.90;99.90
46416;DHT22;32620;51.704;7.822;2023-05-07T03:55:41;12.90;99.90
46416;DHT22;32620;51.704;7.822;2023-05-07T03:58:06;12.90;99.90
46416;DHT22;32620;51.704;7.822;2023-05-07T04:00:32;12.90;99.90
46416;DHT22;32620;51.704;7.822;2023-05-07T04:03:02;12.90;99.90
46416;DHT22;32620;51.704;7.822;2023-05-07T04:05:29;12.90;99.90
46416;DHT22;32620;51.704;7.822;2023-05-07T04:07:54;13.00;99.90
46416;DHT22;32620;51.704;7.822;2023-05-07T04:10:20;13.00;99.90
46416;DHT22;32620;51.704;7.822;2023-05-07T04:12:45;13.00;99.90
46416;DHT22;32620;51.704;7.822;2023-05-07T04:15:11;13.00;99.90
46416;DHT22;32620;51.704;7.822;2023-05-07T04:17:37;13.00;99.90
46416;DHT22;32620;51.704;7.822;2023-05-07T04:20:02;13.00;99.90
46416;DHT22;32620;51.704;7.822;2023-05-07T04:22:28;13.00;99.90
46416;DHT22;32620;51.704;7.822;2023-05-07T04:24:54;13.00;99.90
46416;DHT22;32620;51.704;7.822;2023-05-07T04:27:20;13.00;99.90
46416;DHT22;32620;51.704;7.822;2023-05-07T04:29:46;13.00;99.90
46416;DHT22;32620;51.704;7.822;2023-05-07T04:32:13;13.00;99.90
46416;DHT22;32620;51.704;7.822;2023-05-07T04:34:38;13.00;99.90
46416;DHT22;32620;51.704;7.822;2023-05-07T04:37:04;13.00;99.90
46416;DHT22;32620;51.704;7.822;2023-05-07T04:39:30;13.10;99.90
46416;DHT22;32620;51.704;7.822;2023-05-07T04:41:55;13.10;99.90
46416;DHT22;32620;51.704;7.822;2023-05-07T04:44:21;13.10;99.90
46416;DHT22;32620;51.704;7.822;2023-05-07T04:46:46;13.10;99.90
46416;DHT22;32620;51.704;7.822;2023-05-07T04:49:12;13.10;99.90
46416;DHT22;32620;51.704;7.822;2023-05-07T04:51:37;13.10;99.90
46416;DHT22;32620;51.704;7.822;2023-05-07T04:54:03;13.10;99.90
46416;DHT22;32620;51.704;7.822;2023-05-07T04:56:30;13.20;99.90
46416;DHT22;32620;51.704;7.822;2023-05-07T04:58:55;13.20;99.90
46416;DHT22;32620;51.704;7.822;2023-05-07T05:01:21;13.30;99.90
46416;DHT22;32620;51.704;7.822;2023-05-07T05:03:46;13.30;99.90
46416;DHT22;32620;51.704;7.822;2023-05-07T05:06:12;13.30;99.90
46416;DHT22;32620;51.704;7.822;2023-05-07T05:08:37;13.40;99.90
46416;DHT22;32620;51.704;7.822;2023-05-07T05:11:03;13.40;99.90
46416;DHT22;32620;51.704;7.822;2023-05-07T05:13:29;13.50;99.90
46416;DHT22;32620;51.704;7.822;2023-05-07T05:15:55;13.50;99.90
46416;DHT22;32620;51.704;7.822;2023-05-07T05:18:21;13.50;99.90
46416;DHT22;32620;51.704;7.822;2023-05-07T05:20:47;13.50;99.90
46416;DHT22;32620;51.704;7.822;2023-05-07T05:23:12;13.60;99.90
46416;DHT22;32620;51.704;7.822;2023-05-07T05:25:38;13.60;99.90
46416;DHT22;32620;51.704;7.822;2023-05-07T05:28:05;13.80;99.90
46416;DHT22;32620;51.704;7.822;2023-05-07T05:30:31;13.90;99.90
46416;DHT22;32620;51.704;7.822;2023-05-07T05:32:57;14.00;99.90
46416;DHT22;32620;51.704;7.822;2023-05-07T05:35:22;14.10;99.90
46416;DHT22;32620;51.704;7.822;2023-05-07T05:37:48;14.20;99.90
46416;DHT22;32620;51.704;7.822;2023-05-07T05:40:13;14.40;99.90
46416;DHT22;32620;51.704;7.822;2023-05-07T05:42:42;14.40;99.90
46416;DHT22;32620;51.704;7.822;2023-05-07T05:45:08;14.50;99.90
46416;DHT22;32620;51.704;7.822;2023-05-07T05:47:34;14.50;99.90
46416;DHT22;32620;51.704;7.822;2023-05-07T05:49:59;14.50;99.90
46416;DHT22;32620;51.704;7.822;2023-05-07T05:52:25;14.50;99.90
46416;DHT22;32620;51.704;7.822;2023-05-07T05:54:51;14.60;99.90
46416;DHT22;32620;51.704;7.822;2023-05-07T05:57:16;14.60;99.90
46416;DHT22;32620;51.704;7.822;2023-05-07T05:59:42;14.80;99.90
46416;DHT22;32620;51.704;7.822;2023-05-07T06:02:08;15.00;99.90
46416;DHT22;32620;51.704;7.822;2023-05-07T06:04:33;15.20;99.90
46416;DHT22;32620;51.704;7.822;2023-05-07T06:06:59;15.50;99.90
46416;DHT22;32620;51.704;7.822;2023-05-07T06:09:24;15.70;99.90
46416;DHT22;32620;51.704;7.822;2023-05-07T06:11:50;15.90;99.90
46416;DHT22;32620;51.704;7.822;2023-05-07T06:14:16;16.10;94.90
46416;DHT22;32620;51.704;7.822;2023-05-07T06:16:41;16.00;62.80
46416;DHT22;32620;51.704;7.822;2023-05-07T06:19:07;16.00;93.80
46416;DHT22;32620;51.704;7.822;2023-05-07T06:21:32;16.10;75.40
46416;DHT22;32620;51.704;7.822;2023-05-07T06:23:58;15.90;56.30
46416;DHT22;32620;51.704;7.822;2023-05-07T06:26:24;16.00;91.80
46416;DHT22;32620;51.704;7.822;2023-05-07T06:28:50;15.90;99.70
46416;DHT22;32620;51.704;7.822;2023-05-07T06:31:18;16.00;88.20
46416;DHT22;32620;51.704;7.822;2023-05-07T06:33:48;15.90;76.30
46416;DHT22;32620;51.704;7.822;2023-05-07T06:36:14;15.80;94.00
46416;DHT22;32620;51.704;7.822;2023-05-07T06:38:40;15.60;96.20
46416;DHT22;32620;51.704;7.822;2023-05-07T06:41:06;15.50;99.70
46416;DHT22;32620;51.704;7.822;2023-05-07T06:43:32;15.50;99.90
46416;DHT22;32620;51.704;7.822;2023-05-07T06:45:58;15.50;99.90
46416;DHT22;32620;51.704;7.822;2023-05-07T06:48:23;15.60;99.90
46416;DHT22;32620;51.704;7.822;2023-05-07T06:50:50;15.80;96.20
46416;DHT22;32620;51.704;7.822;2023-05-07T06:53:16;16.00;99.90
46416;DHT22;32620;51.704;7.822;2023-05-07T06:55:42;15.90;85.60
46416;DHT22;32620;51.704;7.822;2023-05-07T06:58:07;15.80;75.30
46416;DHT22;32620;51.704;7.822;2023-05-07T07:00:33;16.00;99.90
46416;DHT22;32620;51.704;7.822;2023-05-07T07:02:58;16.00;68.10
46416;DHT22;32620;51.704;7.822;2023-05-07T07:05:25;16.00;73.40
46416;DHT22;32620;51.704;7.822;2023-05-07T07:07:51;16.00;71.00
46416;DHT22;32620;51.704;7.822;2023-05-07T07:10:20;15.90;87.50
46416;DHT22;32620;51.704;7.822;2023-05-07T07:12:49;15.90;59.30
46416;DHT22;32620;51.704;7.822;2023-05-07T07:15:15;16.00;77.10
46416;DHT22;32620;51.704;7.822;2023-05-07T07:17:41;16.00;71.90
46416;DHT22;32620;51.704;7.822;2023-05-07T07:20:07;16.00;71.30
46416;DHT22;32620;51.704;7.822;2023-05-07T07:22:33;16.00;69.00
46416;DHT22;32620;51.704;7.822;2023-05-07T07:24:59;16.10;55.40
46416;DHT22;32620;51.704;7.822;2023-05-07T07:27:25;16.10;73.90
46416;DHT22;32620;51.704;7.822;2023-05-07T07:29:51;16.40;46.70
46416;DHT22;32620;51.704;7.822;2023-05-07T07:32:17;16.50;58.30
46416;DHT22;32620;51.704;7.822;2023-05-07T07:34:42;16.20;34.30
46416;DHT22;32620;51.704;7.822;2023-05-07T07:37:08;16.30;68.30
46416;DHT22;32620;51.704;7.822;2023-05-07T07:39:34;16.40;47.80
46416;DHT22;32620;51.704;7.822;2023-05-07T07:42:00;16.60;54.60
46416;DHT22;32620;51.704;7.822;2023-05-07T07:44:28;16.90;10.70
46416;DHT22;32620;51.704;7.822;2023-05-07T07:46:53;16.80;13.10
46416;DHT22;32620;51.704;7.822;2023-05-07T07:49:19;16.80;1.00
46416;DHT22;32620;51.704;7.822;2023-05-07T07:51:45;16.90;1.00
46416;DHT22;32620;51.704;7.822;2023-05-07T07:54:10;17.10;6.70
46416;DHT22;32620;51.704;7.822;2023-05-07T07:56:36;17.60;10.60
46416;DHT22;32620;51.704;7.822;2023-05-07T07:59:02;17.60;1.00
46416;DHT22;32620;51.704;7.822;2023-05-07T08:01:29;17.70;1.00
46416;DHT22;32620;51.704;7.822;2023-05-07T08:03:55;18.10;1.00
46416;DHT22;32620;51.704;7.822;2023-05-07T08:06:23;18.20;1.00
46416;DHT22;32620;51.704;7.822;2023-05-07T08:08:48;18.30;1.00
46416;DHT22;32620;51.704;7.822;2023-05-07T08:11:14;18.30;1.00
46416;DHT22;32620;51.704;7.822;2023-05-07T08:13:40;18.30;1.00
46416;DHT22;32620;51.704;7.822;2023-05-07T08:16:05;18.50;1.00
46416;DHT22;32620;51.704;7.822;2023-05-07T08:18:31;18.70;1.00
46416;DHT22;32620;51.704;7.822;2023-05-07T08:20:57;18.70;1.00
46416;DHT22;32620;51.704;7.822;2023-05-07T08:23:22;18.90;1.00
46416;DHT22;32620;51.704;7.822;2023-05-07T08:25:49;19.10;1.00
46416;DHT22;32620;51.704;7.822;2023-05-07T08:28:14;19.60;1.00
46416;DHT22;32620;51.704;7.822;2023-05-07T08:30:40;19.60;99.90
46416;DHT22;32620;51.704;7.822;2023-05-07T08:33:08;19.80;99.90
46416;DHT22;32620;51.704;7.822;2023-05-07T08:35:33;20.70;99.90
46416;DHT22;32620;51.704;7.822;2023-05-07T08:37:59;21.50;13.10
46416;DHT22;32620;51.704;7.822;2023-05-07T08:40:25;22.40;99.90
46416;DHT22;32620;51.704;7.822;2023-05-07T08:42:53;22.60;99.90
46416;DHT22;32620;51.704;7.822;2023-05-07T08:45:19;23.20;99.90
46416;DHT22;32620;51.704;7.822;2023-05-07T08:47:51;24.10;99.90
46416;DHT22;32620;51.704;7.822;2023-05-07T08:50:18;23.40;99.90
46416;DHT22;32620;51.704;7.822;2023-05-07T08:52:45;22.60;12.90
46416;DHT22;32620;51.704;7.822;2023-05-07T08:55:10;21.70;1.00
46416;DHT22;32620;51.704;7.822;2023-05-07T08:57:38;21.50;99.90
46416;DHT22;32620;51.704;7.822;2023-05-07T09:00:04;21.90;99.90
46416;DHT22;32620;51.704;7.822;2023-05-07T09:02:34;22.10;99.90
46416;DHT22;32620;51.704;7.822;2023-05-07T09:05:00;21.90;99.90
46416;DHT22;32620;51.704;7.822;2023-05-07T09:07:26;21.70;1.00
46416;DHT22;32620;51.704;7.822;2023-05-07T09:09:52;21.00;99.90
46416;DHT22;32620;51.704;7.822;2023-05-07T09:12:18;21.20;1.00
46416;DHT22;32620;51.704;7.822;2023-05-07T09:14:45;21.80;99.90
46416;DHT22;32620;51.704;7.822;2023-05-07T09:17:11;22.00;1.00
46416;DHT22;32620;51.704;7.822;2023-05-07T09:19:36;22.80;76.70
46416;DHT22;32620;51.704;7.822;2023-05-07T09:22:04;23.50;99.90
46416;DHT22;32620;51.704;7.822;2023-05-07T09:24:30;22.50;99.90
46416;DHT22;32620;51.704;7.822;2023-05-07T09:27:01;22.30;1.00
46416;DHT22;32620;51.704;7.822;2023-05-07T09:29:26;22.30;1.00
46416;DHT22;32620;51.704;7.822;2023-05-07T09:31:55;22.70;1.00
46416;DHT22;32620;51.704;7.822;2023-05-07T09:34:20;23.30;99.90
46416;DHT22;32620;51.704;7.822;2023-05-07T09:36:47;22.80;99.90
46416;DHT22;32620;51.704;7.822;2023-05-07T09:39:13;22.70;99.90
46416;DHT22;32620;51.704;7.822;2023-05-07T09:41:46;23.10;99.90
46416;DHT22;32620;51.704;7.822;2023-05-07T09:44:14;22.90;1.00
46416;DHT22;32620;51.704;7.822;2023-05-07T09:46:42;22.10;99.90
46416;DHT22;32620;51.704;7.822;2023-05-07T09:49:16;21.90;1.00
46416;DHT22;32620;51.704;7.822;2023-05-07T09:51:52;21.30;1.00
46416;DHT22;32620;51.704;7.822;2023-05-07T09:54:18;20.90;1.00
46416;DHT22;32620;51.704;7.822;2023-05-07T09:56:45;21.10;1.00
46416;DHT22;32620;51.704;7.822;2023-05-07T09:59:14;21.80;1.00
46416;DHT22;32620;51.704;7.822;2023-05-07T10:01:42;22.40;99.90
46416;DHT22;32620;51.704;7.822;2023-05-07T10:04:08;22.80;99.90
46416;DHT22;32620;51.704;7.822;2023-05-07T10:06:35;22.70;99.90
46416;DHT22;32620;51.704;7.822;2023-05-07T10:09:02;22.60;99.90
46416;DHT22;32620;51.704;7.822;2023-05-07T10:11:28;22.80;1.00
46416;DHT22;32620;51.704;7.822;2023-05-07T10:13:54;22.40;99.90
46416;DHT22;32620;51.704;7.822;2023-05-07T10:16:21;22.00;99.90
46416;DHT22;32620;51.704;7.822;2023-05-07T10:18:47;21.50;99.90
46416;DHT22;32620;51.704;7.822;2023-05-07T10:21:18;21.90;1.00
46416;DHT22;32620;51.704;7.822;2023-05-07T10:23:49;22.70;99.90
46416;DHT22;32620;51.704;7.822;2023-05-07T10:26:17;23.70;99.90
46416;DHT22;32620;51.704;7.822;2023-05-07T10:28:46;24.40;20.10
46416;DHT22;32620;51.704;7.822;2023-05-07T10:31:34;24.80;99.90
46416;DHT22;32620;51.704;7.822;2023-05-07T10:34:07;24.80;99.90
46416;DHT22;32620;51.704;7.822;2023-05-07T10:36:35;24.30;99.90
46416;DHT22;32620;51.704;7.822;2023-05-07T10:39:02;24.20;99.90
46416;DHT22;32620;51.704;7.822;2023-05-07T10:41:28;23.70;99.90
46416;DHT22;32620;51.704;7.822;2023-05-07T10:43:54;23.60;99.90
46416;DHT22;32620;51.704;7.822;2023-05-07T10:46:22;23.80;99.90
46416;DHT22;32620;51.704;7.822;2023-05-07T10:51:40;23.60;99.90
46416;DHT22;32620;51.704;7.822;2023-05-07T10:54:18;23.60;99.90
46416;DHT22;32620;51.704;7.822;2023-05-07T10:56:44;23.50;99.90
46416;DHT22;32620;51.704;7.822;2023-05-07T10:59:30;23.60;1.00
46416;DHT22;32620;51.704;7.822;2023-05-07T11:02:02;24.00;1.00
46416;DHT22;32620;51.704;7.822;2023-05-07T11:04:29;23.60;99.90
46416;DHT22;32620;51.704;7.822;2023-05-07T11:07:24;23.30;99.90
46416;DHT22;32620;51.704;7.822;2023-05-07T11:12:46;23.20;99.90
46416;DHT22;32620;51.704;7.822;2023-05-07T11:15:14;23.40;1.00
46416;DHT22;32620;51.704;7.822;2023-05-07T11:17:59;23.00;99.90
46416;DHT22;32620;51.704;7.822;2023-05-07T11:20:49;22.70;1.00
46416;DHT22;32620;51.704;7.822;2023-05-07T11:26:07;22.80;99.90
46416;DHT22;32620;51.704;7.822;2023-05-07T11:28:37;22.80;99.90
46416;DHT22;32620;51.704;7.822;2023-05-07T11:31:04;22.80;51.40
46416;DHT22;32620;51.704;7.822;2023-05-07T11:33:31;22.80;1.00
46416;DHT22;32620;51.704;7.822;2023-05-07T11:35:57;22.90;99.90
46416;DHT22;32620;51.704;7.822;2023-05-07T11:38:23;23.20;99.90
46416;DHT22;32620;51.704;7.822;2023-05-07T11:40:49;23.20;1.00
46416;DHT22;32620;51.704;7.822;2023-05-07T11:43:16;23.30;99.90
46416;DHT22;32620;51.704;7.822;2023-05-07T11:45:41;23.30;99.90
46416;DHT22;32620;51.704;7.822;2023-05-07T11:48:07;23.10;99.90
46416;DHT22;32620;51.704;7.822;2023-05-07T11:50:32;23.10;99.90
46416;DHT22;32620;51.704;7.822;2023-05-07T11:52:58;23.20;99.90
46416;DHT22;32620;51.704;7.822;2023-05-07T11:55:24;22.60;99.90
46416;DHT22;32620;51.704;7.822;2023-05-07T11:57:51;22.90;1.00
46416;DHT22;32620;51.704;7.822;2023-05-07T12:00:17;23.00;1.00
46416;DHT22;32620;51.704;7.822;2023-05-07T12:02:44;23.00;1.00
46416;DHT22;32620;51.704;7.822;2023-05-07T12:05:10;23.30;99.90
46416;DHT22;32620;51.704;7.822;2023-05-07T12:07:36;22.90;1.00
46416;DHT22;32620;51.704;7.822;2023-05-07T12:10:06;22.30;1.00
46416;DHT22;32620;51.704;7.822;2023-05-07T12:12:38;22.30;1.00
46416;DHT22;32620;51.704;7.822;2023-05-07T12:15:04;22.40;1.00
46416;DHT22;32620;51.704;7.822;2023-05-07T12:17:30;22.50;1.00
46416;DHT22;32620;51.704;7.822;2023-05-07T12:19:56;22.40;1.00
46416;DHT22;32620;51.704;7.822;2023-05-07T12:22:22;22.40;40.90
46416;DHT22;32620;51.704;7.822;2023-05-07T12:24:49;22.20;99.90
46416;DHT22;32620;51.704;7.822;2023-05-07T12:27:15;22.30;1.00
46416;DHT22;32620;51.704;7.822;2023-05-07T12:29:49;22.10;99.90
46416;DHT22;32620;51.704;7.822;2023-05-07T12:32:19;22.30;44.90
46416;DHT22;32620;51.704;7.822;2023-05-07T12:34:47;22.30;1.00
46416;DHT22;32620;51.704;7.822;2023-05-07T12:37:14;22.70;1.00
46416;DHT22;32620;51.704;7.822;2023-05-07T12:39:48;22.40;99.90
46416;DHT22;32620;51.704;7.822;2023-05-07T12:42:16;22.30;99.90
46416;DHT22;32620;51.704;7.822;2023-05-07T12:44:45;22.30;1.00
46416;DHT22;32620;51.704;7.822;2023-05-07T12:47:12;22.20;1.00
46416;DHT22;32620;51.704;7.822;2023-05-07T12:49:38;22.30;99.90
46416;DHT22;32620;51.704;7.822;2023-05-07T12:52:05;22.60;1.00
46416;DHT22;32620;51.704;7.822;2023-05-07T12:54:33;22.50;1.00
46416;DHT22;32620;51.704;7.822;2023-05-07T12:57:01;22.80;37.40
46416;DHT22;32620;51.704;7.822;2023-05-07T12:59:36;22.50;1.00
46416;DHT22;32620;51.704;7.822;2023-05-07T13:02:02;22.40;1.00
46416;DHT22;32620;51.704;7.822;2023-05-07T13:04:28;22.40;1.00
46416;DHT22;32620;51.704;7.822;2023-05-07T13:06:54;22.00;1.00
46416;DHT22;32620;51.704;7.822;2023-05-07T13:09:19;22.00;99.90
46416;DHT22;32620;51.704;7.822;2023-05-07T13:11:45;21.80;99.90
46416;DHT22;32620;51.704;7.822;2023-05-07T13:14:11;21.90;99.90
46416;DHT22;32620;51.704;7.822;2023-05-07T13:16:37;21.90;99.90
46416;DHT22;32620;51.704;7.822;2023-05-07T13:19:02;21.70;1.00
46416;DHT22;32620;51.704;7.822;2023-05-07T13:21:28;21.70;99.90
46416;DHT22;32620;51.704;7.822;2023-05-07T13:23:53;22.00;99.90
46416;DHT22;32620;51.704;7.822;2023-05-07T13:26:19;21.70;87.50
46416;DHT22;32620;51.704;7.822;2023-05-07T13:28:45;21.60;99.90
46416;DHT22;32620;51.704;7.822;2023-05-07T13:31:11;21.60;99.90
46416;DHT22;32620;51.704;7.822;2023-05-07T13:33:37;21.30;99.90
46416;DHT22;32620;51.704;7.822;2023-05-07T13:36:03;21.10;99.90
46416;DHT22;32620;51.704;7.822;2023-05-07T13:38:30;21.10;99.90
46416;DHT22;32620;51.704;7.822;2023-05-07T13:40:56;21.40;99.90
46416;DHT22;32620;51.704;7.822;2023-05-07T13:43:22;21.20;99.90
46416;DHT22;32620;51.704;7.822;2023-05-07T13:45:47;21.40;47.10
46416;DHT22;32620;51.704;7.822;2023-05-07T13:48:13;21.50;99.90
46416;DHT22;32620;51.704;7.822;2023-05-07T13:50:39;21.40;99.90
46416;DHT22;32620;51.704;7.822;2023-05-07T13:53:04;21.20;1.00
46416;DHT22;32620;51.704;7.822;2023-05-07T13:55:30;21.30;1.00
46416;DHT22;32620;51.704;7.822;2023-05-07T13:57:57;21.10;1.00
46416;DHT22;32620;51.704;7.822;2023-05-07T14:00:24;21.20;1.00
46416;DHT22;32620;51.704;7.822;2023-05-07T14:02:50;21.10;99.90
46416;DHT22;32620;51.704;7.822;2023-05-07T14:05:15;21.30;99.90
46416;DHT22;32620;51.704;7.822;2023-05-07T14:07:41;21.50;99.90
46416;DHT22;32620;51.704;7.822;2023-05-07T14:10:07;21.40;1.00
46416;DHT22;32620;51.704;7.822;2023-05-07T14:12:33;21.30;1.00
46416;DHT22;32620;51.704;7.822;2023-05-07T14:14:59;21.10;99.90
46416;DHT22;32620;51.704;7.822;2023-05-07T14:17:27;21.10;1.00
46416;DHT22;32620;51.704;7.822;2023-05-07T14:19:54;21.00;1.00
46416;DHT22;32620;51.704;7.822;2023-05-07T14:22:20;20.90;99.90
46416;DHT22;32620;51.704;7.822;2023-05-07T14:24:47;20.80;99.90
46416;DHT22;32620;51.704;7.822;2023-05-07T14:27:13;20.90;99.90
46416;DHT22;32620;51.704;7.822;2023-05-07T14:29:38;20.90;99.90
46416;DHT22;32620;51.704;7.822;2023-05-07T14:32:05;20.80;99.90
46416;DHT22;32620;51.704;7.822;2023-05-07T14:34:31;20.70;99.90
46416;DHT22;32620;51.704;7.822;2023-05-07T14:36:57;20.80;99.90
46416;DHT22;32620;51.704;7.822;2023-05-07T14:39:23;20.80;99.90
46416;DHT22;32620;51.704;7.822;2023-05-07T14:41:49;20.90;1.00
46416;DHT22;32620;51.704;7.822;2023-05-07T14:44:14;20.90;1.00
46416;DHT22;32620;51.704;7.822;2023-05-07T14:46:40;20.90;99.90
46416;DHT22;32620;51.704;7.822;2023-05-07T14:49:06;21.00;1.00
46416;DHT22;32620;51.704;7.822;2023-05-07T14:51:32;20.90;99.90
46416;DHT22;32620;51.704;7.822;2023-05-07T14:53:58;20.90;1.00
46416;DHT22;32620;51.704;7.822;2023-05-07T14:56:24;20.80;99.90
46416;DHT22;32620;51.704;7.822;2023-05-07T14:58:50;20.80;99.90
46416;DHT22;32620;51.704;7.822;2023-05-07T15:01:15;20.50;99.90
46416;DHT22;32620;51.704;7.822;2023-05-07T15:03:41;20.50;99.90
46416;DHT22;32620;51.704;7.822;2023-05-07T15:06:07;20.40;99.90
46416;DHT22;32620;51.704;7.822;2023-05-07T15:08:32;20.60;1.00
46416;DHT22;32620;51.704;7.822;2023-05-07T15:11:01;20.60;1.00
46416;DHT22;32620;51.704;7.822;2023-05-07T15:13:26;20.70;99.90
46416;DHT22;32620;51.704;7.822;2023-05-07T15:15:54;20.60;99.90
46416;DHT22;32620;51.704;7.822;2023-05-07T15:18:20;20.50;99.90
46416;DHT22;32620;51.704;7.822;2023-05-07T15:20:46;20.40;99.90
46416;DHT22;32620;51.704;7.822;2023-05-07T15:23:11;20.30;1.00
46416;DHT22;32620;51.704;7.822;2023-05-07T15:25:39;20.50;99.90
46416;DHT22;32620;51.704;7.822;2023-05-07T15:28:05;20.40;99.90
46416;DHT22;32620;51.704;7.822;2023-05-07T15:30:32;20.40;1.00
46416;DHT22;32620;51.704;7.822;2023-05-07T15:32:58;20.40;1.00
46416;DHT22;32620;51.704;7.822;2023-05-07T15:35:24;20.10;1.00
46416;DHT22;32620;51.704;7.822;2023-05-07T15:37:51;20.10;1.00
46416;DHT22;32620;51.704;7.822;2023-05-07T15:40:18;20.00;99.90